createdAt,value
2018-12-19T00:00:05.990Z,21.8
2018-12-19T00:01:08.424Z,21.9
2018-12-19T00:02:10.569Z,21.8
2018-12-19T00:03:13.001Z,21.8
2018-12-19T00:04:15.422Z,21.8
2018-12-19T00:05:17.853Z,21.8
2018-12-19T00:06:19.465Z,21.8
2018-12-19T00:07:21.898Z,21.8
2018-12-19T00:08:24.051Z,21.8
2018-12-19T00:09:26.518Z,21.9
2018-12-19T00:10:28.664Z,21.9
2018-12-19T00:11:31.100Z,21.9
2018-12-19T00:12:33.261Z,21.9
2018-12-19T00:13:35.681Z,21.9
2018-12-19T00:14:37.832Z,21.9
2018-12-19T00:15:39.989Z,22
2018-12-19T00:16:42.418Z,21.9
2018-12-19T00:17:44.564Z,22
2018-12-19T00:18:46.717Z,22
2018-12-19T00:19:49.151Z,21.9
2018-12-19T00:20:51.039Z,21.9
2018-12-19T00:21:53.180Z,21.9
2018-12-19T00:22:55.619Z,21.9
2018-12-19T00:23:57.466Z,21.9
2018-12-19T00:24:59.901Z,21.9
2018-12-19T00:26:02.075Z,21.9
2018-12-19T00:27:04.496Z,21.9
2018-12-19T00:28:06.656Z,21.9
2018-12-19T00:29:08.806Z,21.9
2018-12-19T00:30:11.227Z,21.9
2018-12-19T00:31:13.652Z,21.9
2018-12-19T00:32:15.793Z,21.9
2018-12-19T00:33:17.940Z,21.9
2018-12-19T00:34:20.099Z,22
2018-12-19T00:35:22.530Z,22
2018-12-19T00:36:24.698Z,22
2018-12-19T00:37:26.831Z,22
2018-12-19T00:38:29.256Z,22
2018-12-19T00:39:31.697Z,22
2018-12-19T00:40:34.128Z,22.1
2018-12-19T00:41:36.566Z,22.1
2018-12-19T00:42:38.993Z,22.1
2018-12-19T00:43:41.412Z,22.1
2018-12-19T00:44:43.572Z,22.2
2018-12-19T00:45:46.000Z,22.2
2018-12-19T00:46:48.438Z,22.2
2018-12-19T00:47:50.873Z,22.2
2018-12-19T00:48:53.291Z,22.2
2018-12-19T00:49:55.445Z,22.2
2018-12-19T00:50:57.330Z,22.2
2018-12-19T00:51:59.761Z,22.2
2018-12-19T00:53:01.919Z,22.2
2018-12-19T00:54:04.340Z,22.2
2018-12-19T00:55:06.481Z,22.2
2018-12-19T00:56:08.624Z,22.2
2018-12-19T00:57:11.050Z,22.3
2018-12-19T00:58:13.201Z,22.3
2018-12-19T00:59:15.339Z,22.3
2018-12-19T01:00:17.758Z,22.3
2018-12-19T01:01:20.170Z,22.3
2018-12-19T01:02:22.598Z,22.3
2018-12-19T01:03:25.031Z,22.3
2018-12-19T01:04:27.157Z,22.3
2018-12-19T01:05:29.304Z,22.3
2018-12-19T01:06:31.173Z,22.3
2018-12-19T01:07:33.041Z,22.3
2018-12-19T01:08:35.469Z,22.3
2018-12-19T01:09:37.631Z,22.3
2018-12-19T01:10:40.055Z,22.3
2018-12-19T01:11:42.486Z,22.3
2018-12-19T01:12:44.909Z,22.4
2018-12-19T01:13:47.068Z,22.4
2018-12-19T01:14:49.494Z,22.4
2018-12-19T01:15:51.347Z,22.4
2018-12-19T01:16:53.769Z,22.4
2018-12-19T01:17:56.196Z,22.4
2018-12-19T01:18:58.319Z,22.4
2018-12-19T01:20:00.471Z,22.4
2018-12-19T01:21:02.632Z,22.4
2018-12-19T01:22:05.059Z,22.3
2018-12-19T01:23:07.211Z,22.3
2018-12-19T01:24:09.339Z,22.3
2018-12-19T01:25:11.787Z,22.3
2018-12-19T01:26:14.212Z,22.3
2018-12-19T01:27:16.380Z,22.4
2018-12-19T01:28:18.539Z,22.4
2018-12-19T01:29:20.961Z,22.4
2018-12-19T01:30:23.119Z,22.4
2018-12-19T01:31:25.278Z,22.4
2018-12-19T01:32:27.702Z,22.4
2018-12-19T01:33:29.834Z,22.4
2018-12-19T01:34:31.981Z,22.4
2018-12-19T01:35:34.425Z,22.4
2018-12-19T01:36:36.847Z,22.4
2018-12-19T01:37:39.276Z,22.4
2018-12-19T01:38:41.711Z,22.4
2018-12-19T01:39:44.141Z,22.4
2018-12-19T01:40:46.280Z,22.4
2018-12-19T01:41:48.440Z,22.4
2018-12-19T01:42:50.865Z,22.4
2018-12-19T01:43:53.036Z,22.4
2018-12-19T01:44:55.183Z,22.4
2018-12-19T01:45:57.600Z,22.4
2018-12-19T01:47:00.027Z,22.4
2018-12-19T01:48:02.170Z,22.4
2018-12-19T01:49:04.601Z,22.4
2018-12-19T01:50:07.023Z,22.4
2018-12-19T01:51:09.439Z,22.4
2018-12-19T01:52:11.299Z,22.4
2018-12-19T01:53:13.441Z,22.4
2018-12-19T01:54:15.869Z,22.4
2018-12-19T01:55:18.037Z,22.4
2018-12-19T01:56:20.179Z,22.4
2018-12-19T01:57:22.305Z,22.4
2018-12-19T01:58:23.899Z,22.4
2018-12-19T01:59:25.772Z,22.4
2018-12-19T02:00:28.197Z,22.4
2018-12-19T02:01:30.361Z,22.4
2018-12-19T02:02:32.781Z,22.4
2018-12-19T02:03:34.932Z,22.4
2018-12-19T02:04:37.061Z,22.4
2018-12-19T02:05:39.489Z,22.4
2018-12-19T02:06:41.364Z,22.4
2018-12-19T02:07:43.510Z,22.5
2018-12-19T02:08:45.642Z,22.4
2018-12-19T02:09:47.794Z,22.5
2018-12-19T02:10:50.220Z,22.4
2018-12-19T02:11:52.637Z,22.5
2018-12-19T02:12:55.055Z,22.5
2018-12-19T02:13:56.933Z,22.5
2018-12-19T02:14:59.356Z,22.5
2018-12-19T02:16:01.545Z,22.5
2018-12-19T02:17:03.961Z,22.5
2018-12-19T02:18:06.115Z,22.5
2018-12-19T02:19:08.541Z,22.5
2018-12-19T02:20:10.964Z,22.5
2018-12-19T02:21:13.113Z,22.5
2018-12-19T02:22:15.549Z,22.5
2018-12-19T02:23:17.979Z,22.5
2018-12-19T02:24:20.590Z,22.5
2018-12-19T02:25:23.011Z,22.5
2018-12-19T02:26:25.434Z,22.5
2018-12-19T02:27:27.851Z,22.4
2018-12-19T02:28:30.283Z,22.5
2018-12-19T02:29:32.439Z,22.5
2018-12-19T02:30:34.868Z,22.5
2018-12-19T02:31:37.296Z,22.5
2018-12-19T02:32:39.721Z,22.5
2018-12-19T02:33:41.603Z,22.5
2018-12-19T02:34:44.024Z,22.5
2018-12-19T02:35:46.457Z,22.5
2018-12-19T02:36:48.624Z,22.5
2018-12-19T02:37:51.052Z,22.5
2018-12-19T02:38:53.201Z,22.5
2018-12-19T02:39:55.346Z,22.5
2018-12-19T02:40:57.501Z,22.5
2018-12-19T02:41:59.661Z,22.5
2018-12-19T02:43:01.825Z,22.5
2018-12-19T02:44:04.011Z,22.5
2018-12-19T02:45:06.459Z,22.5
2018-12-19T02:46:08.877Z,22.5
2018-12-19T02:47:11.290Z,22.5
2018-12-19T02:48:13.719Z,22.5
2018-12-19T02:49:16.141Z,22.5
2018-12-19T02:50:18.310Z,22.5
2018-12-19T02:51:20.460Z,22.5
2018-12-19T02:52:22.342Z,22.5
2018-12-19T02:53:23.928Z,22.5
2018-12-19T02:54:26.355Z,22.5
2018-12-19T02:55:28.500Z,22.5
2018-12-19T02:56:30.919Z,22.5
2018-12-19T02:57:33.361Z,22.5
2018-12-19T02:58:35.792Z,22.5
2018-12-19T02:59:37.683Z,22.5
2018-12-19T03:00:40.110Z,22.5
2018-12-19T03:01:42.272Z,22.5
2018-12-19T03:02:44.699Z,22.5
2018-12-19T03:03:47.141Z,22.5
2018-12-19T03:04:49.288Z,22.5
2018-12-19T03:05:51.706Z,22.5
2018-12-19T03:06:54.132Z,22.5
2018-12-19T03:07:56.554Z,22.5
2018-12-19T03:08:58.989Z,22.5
2018-12-19T03:10:01.157Z,22.5
2018-12-19T03:11:03.669Z,22.5
2018-12-19T03:12:05.571Z,22.5
2018-12-19T03:13:07.995Z,22.5
2018-12-19T03:14:10.430Z,22.5
2018-12-19T03:15:12.859Z,22.5
2018-12-19T03:16:15.292Z,22.5
2018-12-19T03:17:17.738Z,22.5
2018-12-19T03:18:19.881Z,22.5
2018-12-19T03:19:22.298Z,22.5
2018-12-19T03:20:24.451Z,22.5
2018-12-19T03:21:26.879Z,22.5
2018-12-19T03:22:29.032Z,22.5
2018-12-19T03:23:31.466Z,22.5
2018-12-19T03:24:33.889Z,22.5
2018-12-19T03:25:36.039Z,22.5
2018-12-19T03:26:38.464Z,22.5
2018-12-19T03:27:40.874Z,22.5
2018-12-19T03:28:43.026Z,22.5
2018-12-19T03:29:45.464Z,22.5
2018-12-19T03:30:47.885Z,22.5
2018-12-19T03:31:50.303Z,22.5
2018-12-19T03:32:52.753Z,22.5
2018-12-19T03:33:55.084Z,22.5
2018-12-19T03:34:57.516Z,22.5
2018-12-19T03:36:01.325Z,22.5
2018-12-19T03:37:03.756Z,22.5
2018-12-19T03:38:05.905Z,22.5
2018-12-19T03:39:07.815Z,22.5
2018-12-19T03:40:09.961Z,22.6
2018-12-19T03:41:12.101Z,22.5
2018-12-19T03:42:14.269Z,22.5
2018-12-19T03:43:16.424Z,22.5
2018-12-19T03:44:18.568Z,22.5
2018-12-19T03:45:21.010Z,22.6
2018-12-19T03:46:23.155Z,22.5
2018-12-19T03:47:25.576Z,22.5
2018-12-19T03:48:27.729Z,22.5
2018-12-19T03:49:29.354Z,22.6
2018-12-19T03:50:31.779Z,22.6
2018-12-19T03:51:33.910Z,22.6
2018-12-19T03:52:35.797Z,22.6
2018-12-19T03:53:38.212Z,22.6
2018-12-19T03:54:40.365Z,22.6
2018-12-19T03:55:42.523Z,22.6
2018-12-19T03:56:44.931Z,22.6
2018-12-19T03:57:47.354Z,22.6
2018-12-19T03:58:49.783Z,22.6
2018-12-19T03:59:52.201Z,22.6
2018-12-19T04:00:54.342Z,22.6
2018-12-19T04:01:56.763Z,22.6
2018-12-19T04:02:58.909Z,22.6
2018-12-19T04:04:01.329Z,22.6
2018-12-19T04:05:03.481Z,22.6
2018-12-19T04:06:05.891Z,22.6
2018-12-19T04:07:08.312Z,22.6
2018-12-19T04:08:10.741Z,22.5
2018-12-19T04:09:13.168Z,22.5
2018-12-19T04:10:15.313Z,22.5
2018-12-19T04:11:17.735Z,22.5
2018-12-19T04:12:19.890Z,22.5
2018-12-19T04:13:22.312Z,22.4
2018-12-19T04:14:24.458Z,22.4
2018-12-19T04:15:26.878Z,22.4
2018-12-19T04:16:29.043Z,22.4
2018-12-19T04:17:31.179Z,22.4
2018-12-19T04:18:33.612Z,22.4
2018-12-19T04:19:35.508Z,22.4
2018-12-19T04:20:37.656Z,22.4
2018-12-19T04:21:39.802Z,22.4
2018-12-19T04:22:41.961Z,22.5
2018-12-19T04:23:44.379Z,22.5
2018-12-19T04:24:46.802Z,22.5
2018-12-19T04:25:49.223Z,22.4
2018-12-19T04:26:51.650Z,22.5
2018-12-19T04:27:53.806Z,22.4
2018-12-19T04:28:55.961Z,22.4
2018-12-19T04:29:58.383Z,22.4
2018-12-19T04:31:00.800Z,22.4
2018-12-19T04:32:03.215Z,22.4
2018-12-19T04:33:05.409Z,22.4
2018-12-19T04:34:07.848Z,22.4
2018-12-19T04:35:10.282Z,22.4
2018-12-19T04:36:12.696Z,22.4
2018-12-19T04:37:15.179Z,22.4
2018-12-19T04:38:17.448Z,22.4
2018-12-19T04:39:20.028Z,22.4
2018-12-19T04:40:22.224Z,22.4
2018-12-19T04:41:24.138Z,22.4
2018-12-19T04:42:26.269Z,22.4
2018-12-19T04:43:28.733Z,22.4
2018-12-19T04:44:31.169Z,22.4
2018-12-19T04:45:33.591Z,22.4
2018-12-19T04:46:36.051Z,22.4
2018-12-19T04:47:38.480Z,22.4
2018-12-19T04:48:40.664Z,22.4
2018-12-19T04:49:43.096Z,22.4
2018-12-19T04:50:46.144Z,22.4
2018-12-19T04:51:48.591Z,22.4
2018-12-19T04:52:51.021Z,22.4
2018-12-19T04:53:53.459Z,22.4
2018-12-19T04:54:55.639Z,22.4
2018-12-19T04:55:58.083Z,22.4
2018-12-19T04:57:00.243Z,22.4
2018-12-19T04:58:02.702Z,22.4
2018-12-19T04:59:05.133Z,22.4
2018-12-19T05:00:07.013Z,22.3
2018-12-19T05:01:09.443Z,22.3
2018-12-19T05:02:11.611Z,22.3
2018-12-19T05:03:14.040Z,22.3
2018-12-19T05:04:16.191Z,22.3
2018-12-19T05:05:18.343Z,22.3
2018-12-19T05:06:20.766Z,22.3
2018-12-19T05:07:23.194Z,22.3
2018-12-19T05:08:25.609Z,22.3
2018-12-19T05:09:28.110Z,22.3
2018-12-19T05:10:30.529Z,22.3
2018-12-19T05:11:32.948Z,22.3
2018-12-19T05:12:35.129Z,22.3
2018-12-19T05:13:37.559Z,22.3
2018-12-19T05:14:39.719Z,22.3
2018-12-19T05:15:42.150Z,22.3
2018-12-19T05:16:44.591Z,22.3
2018-12-19T05:17:46.732Z,22.3
2018-12-19T05:18:48.928Z,22.3
2018-12-19T05:19:51.359Z,22.3
2018-12-19T05:20:53.258Z,22.3
2018-12-19T05:21:55.427Z,22.3
2018-12-19T05:22:57.844Z,22.3
2018-12-19T05:23:59.983Z,22.3
2018-12-19T05:25:02.411Z,22.3
2018-12-19T05:26:04.556Z,22.3
2018-12-19T05:27:06.979Z,22.3
2018-12-19T05:28:09.434Z,22.3
2018-12-19T05:29:11.580Z,22.3
2018-12-19T05:30:14.002Z,22.3
2018-12-19T05:31:16.421Z,22.3
2018-12-19T05:32:18.839Z,22.3
2018-12-19T05:33:21.269Z,22.3
2018-12-19T05:34:23.702Z,22.3
2018-12-19T05:35:26.128Z,22.3
2018-12-19T05:36:28.569Z,22.3
2018-12-19T05:37:30.723Z,22.3
2018-12-19T05:38:32.884Z,22.3
2018-12-19T05:39:34.773Z,22.3
2018-12-19T05:40:37.192Z,22.3
2018-12-19T05:41:39.625Z,22.3
2018-12-19T05:42:42.040Z,22.3
2018-12-19T05:43:44.464Z,22.3
2018-12-19T05:44:46.611Z,22.2
2018-12-19T05:45:49.033Z,22.2
2018-12-19T05:46:51.463Z,22.2
2018-12-19T05:47:53.625Z,22.2
2018-12-19T05:48:56.043Z,22.2
2018-12-19T05:49:58.208Z,22.2
2018-12-19T05:51:00.663Z,22.2
2018-12-19T05:52:03.088Z,22.2
2018-12-19T05:53:05.536Z,22.2
2018-12-19T05:54:07.963Z,22.2
2018-12-19T05:55:10.411Z,22.2
2018-12-19T05:56:12.840Z,22.2
2018-12-19T05:57:15.281Z,22.2
2018-12-19T05:58:17.429Z,22.2
2018-12-19T05:59:19.861Z,22.2
2018-12-19T06:00:22.011Z,22.2
2018-12-19T06:01:24.173Z,22.2
2018-12-19T06:02:26.606Z,22.2
2018-12-19T06:03:29.040Z,22.2
2018-12-19T06:04:30.923Z,22.2
2018-12-19T06:05:33.352Z,22.2
2018-12-19T06:06:35.541Z,22.2
2018-12-19T06:07:37.724Z,22.2
2018-12-19T06:08:40.151Z,22.2
2018-12-19T06:09:42.574Z,22.2
2018-12-19T06:10:44.717Z,22.2
2018-12-19T06:11:47.137Z,22.2
2018-12-19T06:12:49.561Z,22.2
2018-12-19T06:13:51.729Z,22.2
2018-12-19T06:14:54.153Z,22.1
2018-12-19T06:15:56.305Z,22.1
2018-12-19T06:16:58.730Z,22.1
2018-12-19T06:18:00.628Z,22.1
2018-12-19T06:19:03.051Z,22.1
2018-12-19T06:20:05.483Z,22.1
2018-12-19T06:21:07.644Z,22.1
2018-12-19T06:22:10.116Z,22.1
2018-12-19T06:23:12.541Z,22.1
2018-12-19T06:24:14.665Z,22.1
2018-12-19T06:25:17.094Z,22.1
2018-12-19T06:26:19.519Z,22.1
2018-12-19T06:27:21.675Z,22.1
2018-12-19T06:28:24.273Z,22.1
2018-12-19T06:29:26.786Z,22.1
2018-12-19T06:30:28.973Z,22.1
2018-12-19T06:32:00.472Z,22.1
2018-12-19T06:33:02.355Z,22.1
2018-12-19T06:34:04.801Z,22.1
2018-12-19T06:35:07.225Z,22.1
2018-12-19T06:36:09.649Z,22.1
2018-12-19T06:37:11.811Z,22.1
2018-12-19T06:38:13.985Z,22.1
2018-12-19T06:39:16.410Z,22.1
2018-12-19T06:40:18.849Z,22.1
2018-12-19T06:41:20.735Z,22.1
2018-12-19T06:42:22.876Z,22.1
2018-12-19T06:43:25.295Z,22.1
2018-12-19T06:44:27.462Z,22.1
2018-12-19T06:45:29.665Z,22.1
2018-12-19T06:46:32.083Z,22
2018-12-19T06:47:34.253Z,22
2018-12-19T06:48:36.692Z,22
2018-12-19T06:49:38.831Z,22
2018-12-19T06:50:41.255Z,22
2018-12-19T06:51:43.679Z,22
2018-12-19T06:52:45.828Z,22
2018-12-19T06:53:48.259Z,22
2018-12-19T06:54:50.133Z,22
2018-12-19T06:55:52.293Z,22
2018-12-19T06:56:54.439Z,22
2018-12-19T06:57:56.329Z,22
2018-12-19T06:58:58.483Z,22
2018-12-19T07:00:00.373Z,22
2018-12-19T07:01:02.328Z,22
2018-12-19T07:02:04.733Z,22
2018-12-19T07:03:07.169Z,22
2018-12-19T07:04:09.049Z,22
2018-12-19T07:05:11.479Z,22
2018-12-19T07:06:13.632Z,22
2018-12-19T07:07:15.793Z,22
2018-12-19T07:08:17.961Z,22
2018-12-19T07:09:20.125Z,22
2018-12-19T07:10:22.547Z,22
2018-12-19T07:11:24.978Z,22
2018-12-19T07:12:27.110Z,22
2018-12-19T07:13:29.549Z,22
2018-12-19T07:14:31.981Z,22
2018-12-19T07:15:34.153Z,22
2018-12-19T07:16:36.328Z,22
2018-12-19T07:17:42.792Z,22
2018-12-19T07:18:44.396Z,22
2018-12-19T07:19:46.542Z,22
2018-12-19T07:20:48.699Z,22
2018-12-19T07:21:51.141Z,22
2018-12-19T07:22:53.305Z,22
2018-12-19T07:23:55.165Z,22
2018-12-19T07:24:57.310Z,22
2018-12-19T07:25:59.739Z,22
2018-12-19T07:27:01.948Z,22
2018-12-19T07:28:04.079Z,22
2018-12-19T07:29:06.234Z,22
2018-12-19T07:30:07.828Z,22
2018-12-19T07:31:10.249Z,22
2018-12-19T07:32:12.686Z,22
2018-12-19T07:33:14.291Z,22
2018-12-19T07:34:16.732Z,22
2018-12-19T07:35:18.889Z,22
2018-12-19T07:36:21.029Z,22
2018-12-19T07:37:23.185Z,22
2018-12-19T07:38:25.362Z,22
2018-12-19T07:39:27.229Z,22
2018-12-19T07:40:29.109Z,22
2018-12-19T07:41:31.543Z,22
2018-12-19T07:42:33.697Z,22
2018-12-19T07:43:36.159Z,22
2018-12-19T07:44:38.317Z,22
2018-12-19T07:45:40.205Z,22
2018-12-19T07:46:42.631Z,22
2018-12-19T07:47:45.060Z,22
2018-12-19T07:48:46.671Z,22
2018-12-19T07:49:48.829Z,22
2018-12-19T07:50:51.281Z,22
2018-12-19T07:51:53.729Z,22
2018-12-19T07:52:56.185Z,22
2018-12-19T07:53:58.373Z,22
2018-12-19T07:55:00.802Z,22
2018-12-19T07:56:02.687Z,22
2018-12-19T07:57:05.109Z,22
2018-12-19T07:58:07.261Z,22
2018-12-19T07:59:09.684Z,22
2018-12-19T08:00:12.123Z,22
2018-12-19T08:01:13.979Z,22
2018-12-19T08:02:16.423Z,22
2018-12-19T08:03:18.853Z,22
2018-12-19T08:04:21.273Z,22
2018-12-19T08:06:28.669Z,22
2018-12-19T08:07:30.557Z,22
2018-12-19T08:08:32.732Z,22
2018-12-19T08:09:35.149Z,22
2018-12-19T08:10:37.601Z,22
2018-12-19T08:11:39.746Z,22
2018-12-19T08:12:41.321Z,22
2018-12-19T08:13:43.759Z,22
2018-12-19T08:14:46.240Z,22
2018-12-19T08:15:48.689Z,21.9
2018-12-19T08:16:51.130Z,21.9
2018-12-19T08:17:53.569Z,22
2018-12-19T08:18:55.991Z,22
2018-12-19T08:19:58.175Z,22
2018-12-19T08:21:00.612Z,22
2018-12-19T08:22:03.025Z,22
2018-12-19T08:23:05.449Z,22
2018-12-19T08:24:07.869Z,22
2018-12-19T08:25:10.041Z,22
2018-12-19T08:26:12.197Z,22
2018-12-19T08:27:14.621Z,22
2018-12-19T08:28:17.043Z,22
2018-12-19T08:29:19.465Z,22
2018-12-19T08:30:21.605Z,22
2018-12-19T08:31:23.769Z,22
2018-12-19T08:32:25.934Z,22
2018-12-19T08:33:28.087Z,22
2018-12-19T08:34:30.238Z,22
2018-12-19T08:35:32.389Z,22
2018-12-19T08:36:34.275Z,22
2018-12-19T08:37:36.700Z,22
2018-12-19T08:38:39.129Z,22
2018-12-19T08:39:41.016Z,21.9
2018-12-19T08:40:43.183Z,22
2018-12-19T08:41:45.338Z,22
2018-12-19T08:42:47.485Z,22
2018-12-19T08:43:49.928Z,21.9
2018-12-19T08:44:52.094Z,21.9
2018-12-19T08:45:54.269Z,21.9
2018-12-19T08:46:56.156Z,22
2018-12-19T08:47:58.579Z,21.9
2018-12-19T08:49:01.012Z,21.9
2018-12-19T08:50:03.435Z,21.9
2018-12-19T08:51:07.023Z,21.9
2018-12-19T08:52:08.903Z,21.9
2018-12-19T08:53:11.350Z,21.9
2018-12-19T08:54:13.775Z,21.9
2018-12-19T08:55:15.941Z,21.9
2018-12-19T08:56:18.127Z,21.9
2018-12-19T08:57:20.598Z,21.9
2018-12-19T08:58:23.035Z,21.9
2018-12-19T08:59:25.192Z,21.9
2018-12-19T09:00:27.624Z,21.9
2018-12-19T09:01:29.772Z,21.9
2018-12-19T09:02:31.942Z,21.9
2018-12-19T09:03:34.107Z,21.9
2018-12-19T09:04:36.272Z,21.9
2018-12-19T09:05:38.699Z,21.9
2018-12-19T09:06:41.180Z,21.9
2018-12-19T09:07:43.780Z,21.9
2018-12-19T09:08:46.212Z,21.9
2018-12-19T09:09:48.650Z,21.9
2018-12-19T09:10:50.795Z,21.9
2018-12-19T09:11:52.964Z,21.9
2018-12-19T09:12:55.390Z,21.9
2018-12-19T09:13:57.815Z,21.9
2018-12-19T09:15:01.525Z,21.9
2018-12-19T09:16:03.940Z,21.9
2018-12-19T09:17:06.094Z,21.9
2018-12-19T09:18:08.241Z,21.9
2018-12-19T09:19:10.388Z,21.9
2018-12-19T09:20:12.823Z,21.9
2018-12-19T09:21:14.993Z,21.9
2018-12-19T09:22:17.131Z,21.9
2018-12-19T09:23:19.550Z,21.9
2018-12-19T09:24:21.693Z,21.9
2018-12-19T09:25:24.120Z,21.9
2018-12-19T09:26:26.011Z,21.9
2018-12-19T09:27:28.186Z,21.9
2018-12-19T09:28:30.614Z,21.9
2018-12-19T09:29:32.759Z,21.9
2018-12-19T09:30:35.187Z,21.9
2018-12-19T09:31:37.335Z,21.9
2018-12-19T09:32:39.761Z,21.9
2018-12-19T09:33:41.935Z,21.9
2018-12-19T09:34:44.360Z,21.9
2018-12-19T09:35:46.785Z,21.9
2018-12-19T09:36:48.931Z,21.9
2018-12-19T09:37:50.810Z,21.9
2018-12-19T09:38:52.970Z,21.9
2018-12-19T09:39:55.140Z,21.9
2018-12-19T09:40:57.299Z,21.9
2018-12-19T09:41:59.463Z,21.9
2018-12-19T09:43:01.621Z,21.9
2018-12-19T09:44:03.500Z,21.9
2018-12-19T09:45:05.992Z,21.9
2018-12-19T09:46:08.196Z,21.9
2018-12-19T09:47:10.611Z,21.9
2018-12-19T09:48:12.756Z,21.9
2018-12-19T09:49:15.168Z,21.9
2018-12-19T09:50:17.587Z,21.9
2018-12-19T09:51:19.731Z,21.9
2018-12-19T09:52:22.156Z,21.9
2018-12-19T09:53:24.577Z,21.9
2018-12-19T09:54:26.723Z,21.9
2018-12-19T09:55:29.146Z,21.9
2018-12-19T09:56:31.296Z,21.9
2018-12-19T09:57:33.152Z,21.9
2018-12-19T09:58:35.575Z,21.9
2018-12-19T09:59:37.737Z,21.9
2018-12-19T10:00:39.902Z,21.9
2018-12-19T10:01:41.755Z,21.9
2018-12-19T10:02:44.178Z,21.9
2018-12-19T10:03:46.336Z,21.9
2018-12-19T10:04:48.580Z,21.9
2018-12-19T10:05:51.042Z,21.9
2018-12-19T10:06:53.188Z,21.9
2018-12-19T10:08:24.382Z,21.9
2018-12-19T10:09:26.816Z,21.9
2018-12-19T10:10:29.241Z,21.9
2018-12-19T10:11:31.669Z,21.9
2018-12-19T10:12:34.093Z,21.9
2018-12-19T10:13:36.296Z,21.9
2018-12-19T10:14:38.181Z,21.9
2018-12-19T10:15:40.336Z,21.9
2018-12-19T10:16:42.761Z,21.9
2018-12-19T10:17:45.193Z,21.9
2018-12-19T10:18:47.621Z,21.9
2018-12-19T10:19:50.043Z,21.9
2018-12-19T10:20:52.481Z,21.9
2018-12-19T10:21:54.634Z,21.9
2018-12-19T10:22:57.057Z,21.9
2018-12-19T10:23:59.515Z,21.9
2018-12-19T10:25:01.422Z,21.9
2018-12-19T10:26:03.854Z,21.9
2018-12-19T10:27:06.294Z,21.9
2018-12-19T10:28:08.733Z,21.9
2018-12-19T10:29:10.596Z,21.9
2018-12-19T10:30:13.040Z,21.9
2018-12-19T10:31:15.500Z,21.9
2018-12-19T10:32:17.632Z,21.9
2018-12-19T10:33:20.045Z,21.9
2018-12-19T10:34:22.209Z,21.9
2018-12-19T10:35:24.366Z,21.9
2018-12-19T10:36:26.538Z,21.9
2018-12-19T10:37:28.762Z,21.9
2018-12-19T10:38:30.968Z,21.9
2018-12-19T10:39:32.822Z,21.9
2018-12-19T10:40:35.251Z,21.9
2018-12-19T10:41:37.671Z,21.9
2018-12-19T10:42:40.097Z,21.9
2018-12-19T10:43:42.793Z,21.9
2018-12-19T10:44:45.214Z,21.9
2018-12-19T10:45:47.368Z,21.9
2018-12-19T10:46:49.798Z,21.9
2018-12-19T10:47:51.956Z,21.9
2018-12-19T10:48:54.283Z,21.9
2018-12-19T10:49:56.170Z,21.9
2018-12-19T10:50:58.593Z,21.9
2018-12-19T10:52:00.779Z,21.9
2018-12-19T10:53:03.203Z,21.9
2018-12-19T10:54:05.378Z,21.9
2018-12-19T10:55:07.555Z,21.9
2018-12-19T10:56:09.986Z,21.9
2018-12-19T10:57:12.155Z,21.9
2018-12-19T10:58:14.636Z,21.9
2018-12-19T10:59:17.062Z,21.9
2018-12-19T11:00:19.536Z,21.9
2018-12-19T11:01:21.682Z,21.9
2018-12-19T11:02:23.824Z,21.9
2018-12-19T11:03:25.670Z,21.9
2018-12-19T11:04:28.102Z,21.9
2018-12-19T11:05:30.520Z,21.9
2018-12-19T11:06:32.942Z,21.9
2018-12-19T11:07:35.372Z,21.9
2018-12-19T11:08:37.797Z,21.9
2018-12-19T11:09:40.228Z,21.9
2018-12-19T11:10:42.362Z,21.9
2018-12-19T11:11:44.802Z,21.9
2018-12-19T11:12:47.172Z,22
2018-12-19T11:13:49.602Z,21.9
2018-12-19T11:14:52.043Z,21.9
2018-12-19T11:15:54.477Z,21.9
2018-12-19T11:16:56.905Z,21.9
2018-12-19T11:17:59.352Z,21.9
2018-12-19T11:19:01.796Z,21.9
2018-12-19T11:20:04.215Z,21.9
2018-12-19T11:21:06.655Z,21.9
2018-12-19T11:22:08.817Z,21.9
2018-12-19T11:23:11.238Z,22
2018-12-19T11:24:13.121Z,21.9
2018-12-19T11:25:14.727Z,21.9
2018-12-19T11:26:16.882Z,22
2018-12-19T11:27:19.310Z,21.9
2018-12-19T11:28:21.442Z,21.9
2018-12-19T11:29:23.956Z,21.9
2018-12-19T11:30:25.602Z,21.9
2018-12-19T11:31:27.742Z,21.9
2018-12-19T11:32:29.640Z,21.9
2018-12-19T11:33:31.550Z,21.9
2018-12-19T11:34:32.873Z,21.9
2018-12-19T11:35:35.304Z,21.9
2018-12-19T11:36:37.734Z,21.9
2018-12-19T11:37:39.913Z,21.9
2018-12-19T11:38:42.342Z,21.9
2018-12-19T11:39:44.492Z,21.9
2018-12-19T11:40:46.972Z,21.9
2018-12-19T11:41:49.442Z,21.9
2018-12-19T11:42:51.632Z,21.9
2018-12-19T11:43:53.788Z,21.9
2018-12-19T11:44:57.427Z,21.9
2018-12-19T11:45:59.564Z,21.9
2018-12-19T11:47:01.436Z,21.9
2018-12-19T11:48:03.597Z,21.9
2018-12-19T11:49:06.017Z,21.9
2018-12-19T11:50:08.435Z,21.9
2018-12-19T11:51:10.594Z,21.9
2018-12-19T11:52:13.017Z,21.9
2018-12-19T11:53:15.169Z,21.9
2018-12-19T11:54:17.617Z,21.9
2018-12-19T11:55:19.498Z,21.9
2018-12-19T11:56:21.928Z,21.9
2018-12-19T11:57:24.399Z,21.9
2018-12-19T11:58:26.914Z,21.9
2018-12-19T11:59:28.502Z,21.9
2018-12-19T12:00:30.672Z,21.9
2018-12-19T12:01:33.091Z,21.9
2018-12-19T12:02:35.516Z,21.9
2018-12-19T12:03:37.937Z,21.9
2018-12-19T12:04:40.075Z,21.9
2018-12-19T12:05:42.561Z,21.9
2018-12-19T12:06:45.019Z,21.9
2018-12-19T12:07:47.454Z,21.9
2018-12-19T12:08:49.593Z,21.9
2018-12-19T12:09:52.022Z,21.9
2018-12-19T12:10:54.453Z,21.9
2018-12-19T12:11:56.604Z,21.9
2018-12-19T12:12:59.024Z,21.9
2018-12-19T12:14:01.452Z,21.9
2018-12-19T12:15:03.882Z,21.9
2018-12-19T12:16:05.789Z,21.9
2018-12-19T12:17:09.277Z,21.9
2018-12-19T12:18:11.703Z,21.9
2018-12-19T12:19:13.593Z,21.9
2018-12-19T12:20:16.028Z,21.9
2018-12-19T12:21:18.173Z,21.9
2018-12-19T12:22:20.596Z,21.9
2018-12-19T12:23:23.023Z,21.9
2018-12-19T12:24:25.464Z,21.9
2018-12-19T12:25:27.893Z,21.9
2018-12-19T12:26:30.323Z,21.9
2018-12-19T12:27:32.754Z,21.9
2018-12-19T12:28:34.893Z,21.9
2018-12-19T12:29:37.063Z,21.9
2018-12-19T12:30:39.515Z,21.9
2018-12-19T12:31:41.952Z,21.9
2018-12-19T12:32:44.380Z,21.9
2018-12-19T12:33:46.816Z,21.9
2018-12-19T12:34:49.255Z,21.9
2018-12-19T12:35:51.685Z,21.9
2018-12-19T12:36:54.113Z,21.9
2018-12-19T12:37:56.541Z,21.9
2018-12-19T12:38:58.999Z,21.9
2018-12-19T12:40:01.142Z,21.9
2018-12-19T12:41:03.563Z,21.9
2018-12-19T12:42:06.004Z,21.9
2018-12-19T12:43:08.448Z,21.9
2018-12-19T12:44:10.874Z,21.9
2018-12-19T12:45:13.299Z,21.9
2018-12-19T12:46:15.726Z,21.9
2018-12-19T12:47:18.143Z,21.9
2018-12-19T12:48:20.289Z,21.9
2018-12-19T12:49:22.734Z,21.9
2018-12-19T12:50:25.168Z,21.9
2018-12-19T12:51:27.611Z,21.9
2018-12-19T12:52:30.029Z,21.9
2018-12-19T12:53:32.160Z,21.9
2018-12-19T12:54:34.340Z,21.9
2018-12-19T12:55:36.762Z,21.9
2018-12-19T12:56:38.915Z,21.9
2018-12-19T12:57:41.083Z,21.9
2018-12-19T12:58:43.514Z,21.9
2018-12-19T12:59:45.946Z,21.9
2018-12-19T13:00:48.082Z,21.9
2018-12-19T13:01:50.242Z,21.9
2018-12-19T13:02:52.671Z,21.9
2018-12-19T13:03:55.111Z,21.9
2018-12-19T13:04:56.727Z,21.9
2018-12-19T13:05:58.876Z,21.9
2018-12-19T13:07:00.749Z,21.9
2018-12-19T13:08:02.644Z,21.9
2018-12-19T13:09:05.087Z,21.9
2018-12-19T13:10:07.515Z,21.9
2018-12-19T13:11:09.943Z,21.9
2018-12-19T13:12:12.103Z,21.9
2018-12-19T13:13:14.250Z,21.9
2018-12-19T13:14:16.134Z,21.9
2018-12-19T13:15:18.571Z,21.9
2018-12-19T13:16:20.427Z,21.9
2018-12-19T13:17:22.850Z,21.9
2018-12-19T13:18:25.005Z,21.9
2018-12-19T13:19:27.172Z,21.9
2018-12-19T13:20:29.620Z,21.9
2018-12-19T13:21:32.062Z,21.9
2018-12-19T13:22:34.493Z,21.9
2018-12-19T13:23:36.640Z,21.9
2018-12-19T13:24:38.553Z,21.9
2018-12-19T13:25:40.992Z,21.9
2018-12-19T13:26:43.425Z,21.9
2018-12-19T13:27:45.584Z,21.9
2018-12-19T13:28:48.016Z,21.9
2018-12-19T13:29:50.195Z,21.9
2018-12-19T13:30:52.069Z,21.9
2018-12-19T13:31:53.942Z,21.9
2018-12-19T13:32:55.806Z,21.9
2018-12-19T13:33:58.246Z,21.9
2018-12-19T13:35:00.423Z,21.9
2018-12-19T13:36:02.589Z,21.9
2018-12-19T13:37:04.738Z,21.9
2018-12-19T13:38:07.219Z,21.9
2018-12-19T13:39:09.379Z,21.9
2018-12-19T13:40:11.802Z,21.9
2018-12-19T13:41:14.223Z,21.9
2018-12-19T13:42:16.102Z,21.9
2018-12-19T13:43:18.529Z,21.9
2018-12-19T13:44:20.696Z,21.9
2018-12-19T13:45:23.110Z,21.9
2018-12-19T13:46:25.547Z,21.9
2018-12-19T13:47:27.699Z,21.9
2018-12-19T13:48:29.863Z,21.9
2018-12-19T13:49:32.291Z,21.9
2018-12-19T13:50:34.717Z,21.9
2018-12-19T13:51:36.873Z,21.9
2018-12-19T13:52:39.306Z,21.9
2018-12-19T13:53:41.749Z,21.9
2018-12-19T13:54:44.181Z,21.9
2018-12-19T13:55:46.614Z,21.9
2018-12-19T13:56:48.752Z,21.9
2018-12-19T13:57:51.195Z,21.9
2018-12-19T13:58:53.633Z,21.9